Time;durP1;ratioP1;P1;durP2;ratioP2;P2;SDS_P1;SDS_P2;PMS_P1;PMS_P2;Temp;Humidity;BMP_temperature;BMP_pressure;BME280_temperature;BME280_humidity;BME280_pressure;Samples;Min_cycle;Max_cycle;Signal;HPM_P1;HPM_P2
2022/03/01 00:02:00;;;;;;;18.85;10.07;;;1.10;99.90;;;;;;4982615;28;20305;-65
2022/03/01 00:04:28;;;;;;;19.52;12.63;;;1.00;99.90;;;;;;4983046;28;20234;-66
2022/03/01 00:06:56;;;;;;;21.30;11.98;;;1.10;99.90;;;;;;4982254;28;20318;-63
2022/03/01 00:09:24;;;;;;;23.80;13.05;;;1.00;99.90;;;;;;4980766;28;20395;-65
2022/03/01 00:11:53;;;;;;;23.38;11.73;;;1.00;99.90;;;;;;4981655;28;20207;-65
2022/03/01 00:14:22;;;;;;;18.83;11.80;;;1.00;99.90;;;;;;4982968;28;20208;-66
2022/03/01 00:16:50;;;;;;;21.77;11.80;;;1.00;99.90;;;;;;4982599;28;20200;-64
2022/03/01 00:19:18;;;;;;;23.05;10.93;;;1.00;99.90;;;;;;4983255;28;20226;-66
2022/03/01 00:21:45;;;;;;;18.48;11.50;;;1.00;99.90;;;;;;4982601;28;20207;-66
2022/03/01 00:24:13;;;;;;;17.40;10.23;;;1.00;99.90;;;;;;4985303;28;20207;-64
2022/03/01 00:26:42;;;;;;;21.35;11.60;;;0.90;99.90;;;;;;4983508;28;20382;-65
2022/03/01 00:29:11;;;;;;;21.17;11.32;;;0.90;99.90;;;;;;4981623;28;20223;-65
2022/03/01 00:31:39;;;;;;;17.90;12.02;;;0.90;99.90;;;;;;4981307;28;20214;-64
2022/03/01 00:34:08;;;;;;;22.55;13.75;;;0.90;99.90;;;;;;4981129;28;20204;-65
2022/03/01 00:36:38;;;;;;;18.70;11.00;;;0.90;99.90;;;;;;4980778;28;20793;-64
2022/03/01 00:39:06;;;;;;;19.73;10.63;;;0.90;99.90;;;;;;4980509;28;20229;-64
2022/03/01 00:41:34;;;;;;;20.50;12.13;;;0.90;99.90;;;;;;4980157;28;20807;-64
2022/03/01 00:44:02;;;;;;;21.38;10.73;;;0.80;99.90;;;;;;4980381;28;20210;-66
2022/03/01 00:46:32;;;;;;;22.88;10.38;;;0.80;99.90;;;;;;4981257;28;20199;-66
2022/03/01 00:49:00;;;;;;;19.20;11.38;;;0.80;99.90;;;;;;4980140;28;20219;-66
2022/03/01 00:51:29;;;;;;;19.92;10.55;;;0.80;99.90;;;;;;4980057;28;20848;-65
2022/03/01 00:53:57;;;;;;;20.20;10.95;;;0.80;99.90;;;;;;4980170;28;20202;-65
2022/03/01 00:56:25;;;;;;;22.50;11.20;;;0.80;99.90;;;;;;4980345;28;20228;-65
2022/03/01 00:58:52;;;;;;;20.25;11.32;;;0.80;99.90;;;;;;4979996;28;20219;-65
2022/03/01 01:01:20;;;;;;;23.15;12.13;;;0.80;99.90;;;;;;4979720;28;20204;-66
2022/03/01 01:03:50;;;;;;;19.67;11.98;;;0.80;99.90;;;;;;4980287;28;20207;-66
2022/03/01 01:06:18;;;;;;;19.65;10.60;;;0.80;99.90;;;;;;4980221;28;20212;-65
2022/03/01 01:08:45;;;;;;;18.65;10.75;;;0.80;99.90;;;;;;4979851;28;20250;-66
2022/03/01 01:11:13;;;;;;;18.63;9.90;;;0.80;99.90;;;;;;4980201;28;20203;-66
2022/03/01 01:13:41;;;;;;;20.65;11.30;;;0.80;99.90;;;;;;4980340;28;20203;-65
2022/03/01 01:16:11;;;;;;;17.45;10.38;;;0.70;99.90;;;;;;4980463;28;20227;-65
2022/03/01 01:18:43;;;;;;;15.60;10.25;;;0.70;99.90;;;;;;4980306;28;20239;-66
2022/03/01 01:21:13;;;;;;;18.48;10.30;;;0.70;99.90;;;;;;4980606;28;20212;-66
2022/03/01 01:23:42;;;;;;;17.95;10.80;;;0.70;99.90;;;;;;4980106;28;20298;-66
2022/03/01 01:26:10;;;;;;;20.30;11.32;;;0.70;99.90;;;;;;4979966;28;20849;-66
2022/03/01 01:28:38;;;;;;;17.10;10.43;;;0.70;99.90;;;;;;4980085;28;20230;-66
2022/03/01 01:31:06;;;;;;;16.52;10.95;;;0.70;99.90;;;;;;4979449;28;20231;-66
2022/03/01 01:33:34;;;;;;;18.67;11.10;;;0.70;99.90;;;;;;4979909;28;20208;-66
2022/03/01 01:36:02;;;;;;;13.68;8.85;;;0.60;99.90;;;;;;4979038;28;20281;-66
2022/03/01 01:38:32;;;;;;;21.23;12.38;;;0.60;99.90;;;;;;4979948;28;20200;-64
2022/03/01 01:41:00;;;;;;;16.38;9.38;;;0.60;99.90;;;;;;4979174;28;20227;-66
2022/03/01 01:43:31;;;;;;;16.45;9.90;;;0.60;99.90;;;;;;4978417;28;20350;-67
2022/03/01 01:46:03;;;;;;;14.55;10.18;;;0.60;99.90;;;;;;4979154;28;20294;-66
2022/03/01 01:48:31;;;;;;;16.13;9.98;;;0.50;99.90;;;;;;4979091;28;20886;-67
2022/03/01 01:50:59;;;;;;;18.90;9.43;;;0.60;99.90;;;;;;4979042;28;20203;-65
2022/03/01 01:53:29;;;;;;;15.85;9.70;;;0.50;99.90;;;;;;4979554;28;20299;-65
2022/03/01 01:55:59;;;;;;;18.55;10.50;;;0.50;99.90;;;;;;4979509;28;20290;-65
2022/03/01 01:58:26;;;;;;;18.80;11.57;;;0.60;99.90;;;;;;4979376;28;20932;-66
2022/03/01 02:00:54;;;;;;;20.10;10.75;;;0.60;99.90;;;;;;4979176;28;20332;-66
2022/03/01 02:03:25;;;;;;;17.13;10.35;;;0.50;99.90;;;;;;4979421;28;20238;-64
2022/03/01 02:05:53;;;;;;;23.80;11.55;;;0.60;99.90;;;;;;4978913;28;20857;-68
2022/03/01 02:08:20;;;;;;;17.10;9.93;;;0.50;99.90;;;;;;4979562;28;20978;-65
2022/03/01 02:14:39;;;;;;;17.30;9.43;;;0.50;99.90;;;;;;4984676;28;20230;-67
2022/03/01 02:17:09;;;;;;;21.50;9.80;;;0.40;99.90;;;;;;4979033;28;20203;-66
2022/03/01 02:19:38;;;;;;;20.85;10.98;;;0.40;99.90;;;;;;4979346;28;20231;-65
2022/03/01 02:22:08;;;;;;;16.77;9.60;;;0.40;99.90;;;;;;4979077;28;20249;-66
2022/03/01 02:24:36;;;;;;;15.73;9.95;;;0.40;99.90;;;;;;4978717;28;20207;-66
2022/03/01 02:27:05;;;;;;;20.02;9.90;;;0.40;99.90;;;;;;4979488;28;20198;-66
2022/03/01 02:29:34;;;;;;;16.75;9.68;;;0.40;99.90;;;;;;4978647;28;20727;-65
2022/03/01 02:32:04;;;;;;;17.83;11.02;;;0.30;99.90;;;;;;4982008;28;20844;-66
2022/03/01 02:34:33;;;;;;;16.55;9.10;;;0.30;99.90;;;;;;4985611;28;20200;-67
2022/03/01 02:37:01;;;;;;;19.70;10.55;;;0.30;99.90;;;;;;4984451;28;20293;-66
2022/03/01 02:39:30;;;;;;;17.38;11.50;;;0.30;99.90;;;;;;4995178;28;20232;-70
2022/03/01 02:41:58;;;;;;;14.07;9.00;;;0.40;99.90;;;;;;4985474;28;20291;-65
2022/03/01 02:44:26;;;;;;;18.52;10.30;;;0.40;99.90;;;;;;4987973;28;20267;-66
2022/03/01 02:46:54;;;;;;;20.38;11.23;;;0.40;99.90;;;;;;4987494;28;20266;-65
2022/03/01 02:49:22;;;;;;;18.13;10.30;;;0.30;99.90;;;;;;4987861;28;20227;-65
2022/03/01 02:51:50;;;;;;;19.30;10.38;;;0.30;99.90;;;;;;4987190;28;20204;-64
2022/03/01 02:54:17;;;;;;;17.40;10.50;;;0.20;99.90;;;;;;4986547;28;20302;-65
2022/03/01 02:56:47;;;;;;;20.65;10.90;;;0.20;99.90;;;;;;4987070;28;20208;-64
2022/03/01 02:59:15;;;;;;;15.63;9.48;;;0.20;99.90;;;;;;4986625;28;20222;-65
2022/03/01 03:01:43;;;;;;;19.98;10.43;;;0.20;99.90;;;;;;4985912;28;20207;-65
2022/03/01 03:04:11;;;;;;;14.80;9.02;;;0.10;99.90;;;;;;4984905;28;20203;-65
2022/03/01 03:06:39;;;;;;;22.08;11.48;;;0.00;99.90;;;;;;4984777;28;20207;-65
2022/03/01 03:09:07;;;;;;;17.80;10.80;;;0.10;99.90;;;;;;4985031;28;20238;-65
2022/03/01 03:11:35;;;;;;;18.25;10.32;;;0.00;99.90;;;;;;4984776;28;20431;-66
2022/03/01 03:14:04;;;;;;;18.85;9.90;;;0.00;99.90;;;;;;4984692;28;20291;-65
2022/03/01 03:16:32;;;;;;;20.38;11.10;;;0.00;99.90;;;;;;4984509;28;20207;-65
2022/03/01 03:19:00;;;;;;;18.13;10.23;;;0.10;99.90;;;;;;4984995;28;20219;-65
2022/03/01 03:21:28;;;;;;;21.15;11.38;;;0.00;99.90;;;;;;4985231;28;20210;-65
2022/03/01 03:23:56;;;;;;;18.17;11.13;;;0.00;99.90;;;;;;4985110;28;20200;-66
2022/03/01 03:26:23;;;;;;;18.48;10.25;;;-0.10;99.90;;;;;;4985189;28;20210;-67
2022/03/01 03:28:51;;;;;;;18.35;11.30;;;0.00;99.90;;;;;;4985305;28;20233;-66
2022/03/01 03:31:20;;;;;;;18.83;8.85;;;0.00;99.90;;;;;;4985144;28;20880;-65
2022/03/01 03:33:49;;;;;;;16.50;9.25;;;0.00;99.90;;;;;;4984489;28;20203;-65
2022/03/01 03:36:17;;;;;;;22.88;10.65;;;0.00;99.90;;;;;;4984717;28;20278;-65
2022/03/01 03:38:44;;;;;;;15.52;9.93;;;0.00;99.90;;;;;;4985368;28;20224;-64
2022/03/01 03:41:12;;;;;;;17.95;9.75;;;0.00;99.90;;;;;;4984955;28;20214;-65
2022/03/01 03:43:40;;;;;;;22.67;10.73;;;0.00;99.90;;;;;;4981817;28;20710;-65
2022/03/01 03:46:08;;;;;;;19.48;9.95;;;0.00;99.90;;;;;;4981480;28;20816;-65
2022/03/01 03:48:37;;;;;;;16.15;9.80;;;-0.20;99.90;;;;;;4981980;28;20862;-65
2022/03/01 03:51:05;;;;;;;18.45;10.32;;;-0.20;99.90;;;;;;4982336;28;20207;-65
2022/03/01 03:53:33;;;;;;;16.50;10.18;;;-0.20;99.90;;;;;;4981423;28;20282;-65
2022/03/01 03:56:00;;;;;;;14.40;9.95;;;-0.20;99.90;;;;;;4981758;28;20218;-66
2022/03/01 03:58:28;;;;;;;18.13;9.95;;;-0.20;99.90;;;;;;4981997;28;20720;-66
2022/03/01 04:00:57;;;;;;;16.60;9.10;;;-0.20;99.90;;;;;;4980687;28;20204;-66
2022/03/01 04:03:25;;;;;;;16.90;9.77;;;-0.20;99.90;;;;;;4981653;28;20208;-66
2022/03/01 04:05:54;;;;;;;20.38;8.98;;;-0.30;99.90;;;;;;4981635;28;20200;-66
2022/03/01 04:08:22;;;;;;;14.48;10.05;;;-0.30;99.90;;;;;;4982339;28;20215;-64
2022/03/01 04:10:49;;;;;;;14.00;9.15;;;-0.20;99.90;;;;;;4983014;28;20202;-68
2022/03/01 04:13:17;;;;;;;18.95;9.70;;;-0.10;99.90;;;;;;4982902;28;20199;-64
2022/03/01 04:15:45;;;;;;;18.60;9.88;;;-0.20;99.90;;;;;;4982116;28;20818;-64
2022/03/01 04:18:13;;;;;;;17.15;9.68;;;-0.30;99.90;;;;;;4981801;28;20200;-66
2022/03/01 04:20:40;;;;;;;15.80;8.85;;;-0.30;99.90;;;;;;4981484;28;20216;-66
2022/03/01 04:23:10;;;;;;;15.55;8.50;;;-0.40;99.90;;;;;;4980762;28;20699;-65
2022/03/01 04:25:38;;;;;;;13.60;9.60;;;-0.40;99.90;;;;;;4981023;28;20294;-65
2022/03/01 04:28:05;;;;;;;16.90;10.02;;;-0.50;99.90;;;;;;4981210;28;20210;-65
2022/03/01 04:30:35;;;;;;;18.63;9.15;;;-0.50;99.90;;;;;;4980448;28;20232;-65
2022/03/01 04:33:03;;;;;;;16.48;10.38;;;-0.50;99.90;;;;;;4980528;28;20206;-65
2022/03/01 04:35:30;;;;;;;15.07;9.88;;;-0.50;99.90;;;;;;4980288;28;20851;-67
2022/03/01 04:37:58;;;;;;;14.57;9.38;;;-0.50;99.90;;;;;;4980646;28;20208;-65
2022/03/01 04:40:27;;;;;;;14.73;8.95;;;-0.50;99.90;;;;;;4980580;28;20215;-65
2022/03/01 04:42:55;;;;;;;16.40;9.75;;;-0.50;99.90;;;;;;4980398;28;20210;-66
2022/03/01 04:45:24;;;;;;;16.02;9.43;;;-0.50;99.90;;;;;;4980783;28;20728;-66
2022/03/01 04:47:52;;;;;;;16.23;10.20;;;-0.50;99.90;;;;;;4980770;28;20200;-67
2022/03/01 04:50:20;;;;;;;17.08;8.82;;;-0.60;99.90;;;;;;4980504;28;20224;-65
2022/03/01 04:52:48;;;;;;;19.10;10.07;;;-0.50;99.90;;;;;;4980506;28;20203;-65
2022/03/01 04:55:16;;;;;;;16.45;9.07;;;-0.60;99.90;;;;;;4978808;28;20820;-65
2022/03/01 04:57:48;;;;;;;15.25;9.35;;;-0.60;99.90;;;;;;4980179;28;20210;-66
2022/03/01 05:00:16;;;;;;;15.82;10.20;;;-0.60;99.90;;;;;;4979129;28;20742;-65
2022/03/01 05:02:47;;;;;;;16.30;9.73;;;-0.60;99.90;;;;;;4979634;28;20200;-65
2022/03/01 05:05:16;;;;;;;16.55;9.90;;;-0.70;99.90;;;;;;4979966;28;20222;-64
2022/03/01 05:07:45;;;;;;;17.02;10.25;;;-0.70;99.90;;;;;;4979879;28;20411;-64
2022/03/01 05:10:17;;;;;;;22.02;11.00;;;-0.70;99.90;;;;;;4979775;28;20265;-64
2022/03/01 05:12:48;;;;;;;18.70;10.85;;;-0.70;99.90;;;;;;4979490;28;20207;-64
2022/03/01 05:15:16;;;;;;;20.52;10.52;;;-0.80;99.90;;;;;;4980184;28;20207;-65
2022/03/01 05:17:45;;;;;;;17.90;9.10;;;-0.80;99.90;;;;;;4979768;28;20855;-65
2022/03/01 05:20:13;;;;;;;17.92;10.45;;;-0.80;99.90;;;;;;4979865;28;20230;-67
2022/03/01 05:22:42;;;;;;;21.17;11.10;;;-0.80;99.90;;;;;;4980524;28;20218;-65
2022/03/01 05:25:12;;;;;;;16.15;10.27;;;-0.80;99.90;;;;;;4981814;28;20210;-66
2022/03/01 05:27:42;;;;;;;20.77;9.73;;;-0.80;99.90;;;;;;4983277;28;20266;-65
2022/03/01 05:30:14;;;;;;;20.13;9.93;;;-0.80;99.90;;;;;;4982006;28;20224;-65
2022/03/01 05:32:44;;;;;;;18.05;9.95;;;-0.80;99.90;;;;;;4983136;28;20207;-66
2022/03/01 05:35:13;;;;;;;20.73;10.57;;;-0.80;99.90;;;;;;4982210;28;20273;-66
2022/03/01 05:37:42;;;;;;;21.40;10.48;;;-0.90;99.90;;;;;;4981158;28;20303;-66
2022/03/01 05:40:12;;;;;;;16.13;10.25;;;-0.90;99.90;;;;;;4981316;28;20247;-65
2022/03/01 05:42:42;;;;;;;17.17;9.75;;;-0.90;99.90;;;;;;4980560;28;20210;-72
2022/03/01 05:45:12;;;;;;;21.73;10.90;;;-0.90;99.90;;;;;;4979863;28;20633;-71
2022/03/01 05:47:41;;;;;;;18.08;10.13;;;-0.80;99.90;;;;;;4975438;28;20203;-71
2022/03/01 05:50:10;;;;;;;18.80;9.90;;;-0.70;99.90;;;;;;4995277;28;20211;-71
2022/03/01 05:52:42;;;;;;;16.00;10.88;;;-0.70;99.90;;;;;;4992077;28;20203;-71
2022/03/01 05:55:11;;;;;;;19.65;10.25;;;-0.60;99.90;;;;;;4999162;28;20333;-71
2022/03/01 05:57:39;;;;;;;19.20;11.10;;;-0.70;99.90;;;;;;4991039;28;20777;-72
2022/03/01 06:00:13;;;;;;;21.83;13.05;;;-0.70;99.90;;;;;;4998914;28;20231;-71
2022/03/01 06:02:41;;;;;;;15.95;10.25;;;-0.60;99.90;;;;;;4999118;28;20203;-70
2022/03/01 06:05:12;;;;;;;17.20;9.80;;;-0.60;99.90;;;;;;4998669;28;20210;-69
2022/03/01 06:07:40;;;;;;;17.05;9.30;;;-0.70;99.90;;;;;;4998295;28;20191;-72
2022/03/01 06:10:09;;;;;;;20.65;10.77;;;-0.60;99.90;;;;;;4999148;28;20235;-71
2022/03/01 06:12:37;;;;;;;18.45;11.27;;;-0.60;99.90;;;;;;4998323;28;20229;-68
2022/03/01 06:15:05;;;;;;;19.95;10.40;;;-0.60;99.90;;;;;;4998509;28;20201;-68
2022/03/01 06:17:34;;;;;;;19.38;11.60;;;-0.70;99.90;;;;;;4998573;28;20207;-68
2022/03/01 06:20:02;;;;;;;17.90;10.27;;;-0.70;99.90;;;;;;4998662;28;20301;-67
2022/03/01 06:22:30;;;;;;;22.45;10.77;;;-0.80;99.90;;;;;;4998419;28;20218;-67
2022/03/01 06:24:58;;;;;;;19.52;10.38;;;-0.80;99.90;;;;;;4998101;28;20211;-67
2022/03/01 06:27:26;;;;;;;20.33;12.93;;;-0.80;99.90;;;;;;4998279;28;20860;-66
2022/03/01 06:29:54;;;;;;;17.52;10.35;;;-0.80;99.90;;;;;;4997932;28;20222;-66
2022/03/01 06:32:22;;;;;;;19.02;11.30;;;-0.80;99.90;;;;;;4998571;28;20210;-66
2022/03/01 06:34:51;;;;;;;22.63;11.50;;;-0.80;99.90;;;;;;4998240;28;20205;-67
2022/03/01 06:37:36;;;;;;;19.40;10.98;;;-0.80;99.90;;;;;;4998090;28;20854;-67
2022/03/01 06:40:07;;;;;;;19.75;11.40;;;-0.80;99.90;;;;;;4998225;28;20230;-67
2022/03/01 06:42:35;;;;;;;22.42;11.80;;;-0.90;99.90;;;;;;4996967;28;20203;-66
2022/03/01 06:45:06;;;;;;;21.50;11.75;;;-0.90;99.90;;;;;;4997044;28;20885;-66
2022/03/01 06:47:37;;;;;;;20.65;11.00;;;-0.90;99.90;;;;;;4997020;28;20223;-66
2022/03/01 06:50:08;;;;;;;15.30;10.60;;;-0.80;99.90;;;;;;4996376;28;20220;-66
2022/03/01 06:52:37;;;;;;;21.40;12.30;;;-0.80;99.90;;;;;;4989042;28;20987;-67
2022/03/01 06:55:06;;;;;;;20.80;12.02;;;-0.70;99.90;;;;;;4996559;28;20841;-66
2022/03/01 06:57:34;;;;;;;17.83;11.95;;;-0.70;99.90;;;;;;4998347;28;20798;-66
2022/03/01 07:00:02;;;;;;;19.33;10.70;;;-0.70;99.90;;;;;;4997532;28;20777;-66
2022/03/01 07:02:30;;;;;;;19.67;11.57;;;-0.70;99.90;;;;;;4998384;28;20211;-67
2022/03/01 07:04:58;;;;;;;18.88;11.85;;;-0.60;99.90;;;;;;4997565;28;20218;-67
2022/03/01 07:07:27;;;;;;;15.65;9.75;;;-0.60;99.90;;;;;;4997763;28;20199;-66
2022/03/01 07:09:55;;;;;;;18.65;10.30;;;-0.60;99.90;;;;;;4997985;28;20718;-67
2022/03/01 07:12:26;;;;;;;16.80;10.00;;;-0.50;99.90;;;;;;4997981;28;20223;-67
2022/03/01 07:14:54;;;;;;;19.88;10.90;;;-0.50;99.90;;;;;;4997588;28;20306;-67
2022/03/01 07:17:22;;;;;;;24.20;12.65;;;-0.40;99.90;;;;;;4998595;28;20270;-67
2022/03/01 07:19:50;;;;;;;21.08;10.95;;;-0.40;99.90;;;;;;5001904;28;20755;-67
2022/03/01 07:22:19;;;;;;;15.27;10.30;;;-0.40;99.90;;;;;;5002240;28;20880;-68
2022/03/01 07:24:48;;;;;;;20.40;11.00;;;-0.40;99.90;;;;;;5002021;28;20202;-68
2022/03/01 07:27:16;;;;;;;22.65;12.88;;;-0.30;99.90;;;;;;5001740;28;20274;-69
2022/03/01 07:29:44;;;;;;;15.80;9.75;;;-0.30;99.90;;;;;;5001377;28;20233;-68
2022/03/01 07:32:13;;;;;;;20.90;10.48;;;-0.20;99.90;;;;;;5000983;28;20253;-68
2022/03/01 07:34:42;;;;;;;20.45;10.93;;;-0.10;99.90;;;;;;5000047;28;20195;-68
2022/03/01 07:37:10;;;;;;;21.13;12.38;;;0.00;99.90;;;;;;5000941;28;20261;-68
2022/03/01 07:39:38;;;;;;;21.40;12.65;;;0.10;99.90;;;;;;5001736;28;20222;-69
2022/03/01 07:42:07;;;;;;;22.90;11.60;;;0.20;99.90;;;;;;5001183;28;20278;-69
2022/03/01 07:44:37;;;;;;;17.23;11.25;;;0.30;99.90;;;;;;5001063;28;20199;-73
2022/03/01 07:47:06;;;;;;;22.23;12.70;;;0.40;99.90;;;;;;5001772;28;20639;-68
2022/03/01 07:49:35;;;;;;;24.27;12.70;;;0.50;99.90;;;;;;5000188;28;20815;-68
2022/03/01 07:52:03;;;;;;;20.67;12.00;;;0.50;99.90;;;;;;5000321;28;20310;-68
2022/03/01 07:54:31;;;;;;;20.73;11.60;;;0.60;99.90;;;;;;5001131;28;20223;-68
2022/03/01 07:57:01;;;;;;;18.70;10.52;;;0.50;99.90;;;;;;5002146;28;20213;-69
2022/03/01 07:59:31;;;;;;;20.20;13.23;;;0.50;99.90;;;;;;5005877;28;20231;-67
2022/03/01 08:01:59;;;;;;;19.65;11.40;;;0.60;99.90;;;;;;5002987;28;20206;-68
2022/03/01 08:04:27;;;;;;;19.38;13.43;;;0.60;99.90;;;;;;5001632;28;20870;-69
2022/03/01 08:06:54;;;;;;;18.45;10.70;;;0.60;99.90;;;;;;5004060;28;20209;-68
2022/03/01 08:09:22;;;;;;;20.77;11.13;;;0.70;99.90;;;;;;5000874;28;20219;-69
2022/03/01 08:11:50;;;;;;;21.77;11.88;;;0.70;99.90;;;;;;5001224;28;20234;-66
2022/03/01 08:14:18;;;;;;;18.20;11.57;;;0.80;99.90;;;;;;5001271;28;20213;-68
2022/03/01 08:16:48;;;;;;;22.95;11.95;;;0.90;99.90;;;;;;5002492;28;20279;-69
2022/03/01 08:19:16;;;;;;;23.00;11.13;;;1.00;99.90;;;;;;5001908;28;20219;-68
2022/03/01 08:21:43;;;;;;;21.10;12.63;;;1.00;99.90;;;;;;5001271;28;20259;-68
2022/03/01 08:24:11;;;;;;;22.73;12.50;;;1.10;99.90;;;;;;5000221;28;20293;-69
2022/03/01 08:26:41;;;;;;;19.70;10.93;;;1.10;99.90;;;;;;5000443;28;20191;-67
2022/03/01 08:29:09;;;;;;;18.15;11.32;;;1.30;99.90;;;;;;5000611;28;20251;-67
2022/03/01 08:31:42;;;;;;;23.92;11.32;;;1.40;99.90;;;;;;4995839;28;20810;-67
2022/03/01 08:34:12;;;;;;;23.35;13.25;;;1.50;99.90;;;;;;5001333;28;20406;-66
2022/03/01 08:36:41;;;;;;;20.30;12.77;;;1.60;99.90;;;;;;4992956;28;20191;-68
2022/03/01 08:39:09;;;;;;;20.60;13.27;;;1.70;99.90;;;;;;4999763;28;20219;-67
2022/03/01 08:41:37;;;;;;;23.35;12.75;;;1.70;99.90;;;;;;4999354;28;20203;-67
2022/03/01 08:44:05;;;;;;;19.67;11.45;;;1.70;99.90;;;;;;4999484;28;20199;-67
2022/03/01 08:46:33;;;;;;;18.15;11.32;;;1.70;99.90;;;;;;4999699;28;20203;-67
2022/03/01 08:49:01;;;;;;;20.92;12.05;;;1.70;99.90;;;;;;4999780;28;20215;-67
2022/03/01 08:51:30;;;;;;;24.98;13.18;;;1.70;99.90;;;;;;4999082;28;20732;-68
2022/03/01 08:54:02;;;;;;;21.92;12.52;;;1.60;99.90;;;;;;4998967;28;20243;-67
2022/03/01 08:56:30;;;;;;;20.05;11.20;;;1.60;99.90;;;;;;4999767;28;20734;-68
2022/03/01 08:58:58;;;;;;;22.15;12.05;;;1.70;99.90;;;;;;4999219;28;20305;-67
2022/03/01 09:01:25;;;;;;;25.23;12.65;;;1.70;99.90;;;;;;4999862;28;20195;-68
2022/03/01 09:03:53;;;;;;;26.85;13.70;;;1.70;99.90;;;;;;5000035;28;20820;-67
2022/03/01 09:06:21;;;;;;;22.13;12.43;;;1.70;99.90;;;;;;5000417;28;20206;-69
2022/03/01 09:08:52;;;;;;;21.15;12.32;;;1.70;99.90;;;;;;4999757;28;20223;-71
2022/03/01 09:11:20;;;;;;;21.42;12.90;;;1.70;99.90;;;;;;4999260;28;20199;-69
2022/03/01 09:13:48;;;;;;;20.00;12.82;;;1.70;99.90;;;;;;5000037;28;20725;-69
2022/03/01 09:16:17;;;;;;;21.90;11.43;;;1.80;99.90;;;;;;4999744;28;20191;-70
2022/03/01 09:18:45;;;;;;;21.45;12.95;;;1.90;99.90;;;;;;4998073;28;20218;-69
2022/03/01 09:21:16;;;;;;;23.42;12.32;;;2.00;99.90;;;;;;4999796;28;20199;-70
2022/03/01 09:23:45;;;;;;;23.02;14.25;;;2.20;99.90;;;;;;5000080;28;20195;-78
2022/03/01 09:26:15;;;;;;;23.38;11.93;;;2.30;99.90;;;;;;5000962;28;20210;-70
2022/03/01 09:28:43;;;;;;;24.88;13.25;;;2.30;99.90;;;;;;4979747;28;20834;-71
2022/03/01 09:31:11;;;;;;;19.67;12.32;;;2.30;99.90;;;;;;4999303;28;20195;-71
2022/03/01 09:33:42;;;;;;;22.45;12.57;;;2.40;99.90;;;;;;4998577;28;20363;-71
2022/03/01 09:36:11;;;;;;;24.50;12.85;;;2.40;99.90;;;;;;4999493;28;20195;-71
2022/03/01 09:38:39;;;;;;;21.30;12.50;;;2.40;99.90;;;;;;4998925;28;20354;-71
2022/03/01 09:41:06;;;;;;;16.45;11.20;;;2.50;99.90;;;;;;4997519;28;20207;-71
2022/03/01 09:43:37;;;;;;;21.52;12.10;;;2.70;99.90;;;;;;4998834;28;20201;-70
2022/03/01 09:46:05;;;;;;;18.40;10.93;;;2.70;99.90;;;;;;4999566;28;20691;-71
2022/03/01 09:48:35;;;;;;;24.05;12.70;;;2.70;99.90;;;;;;5001592;28;20205;-71
2022/03/01 09:51:05;;;;;;;20.98;11.93;;;2.80;99.90;;;;;;5004252;28;20199;-71
2022/03/01 09:53:40;;;;;;;17.52;11.55;;;2.90;99.90;;;;;;5005491;28;20242;-71
2022/03/01 09:56:09;;;;;;;21.50;12.48;;;3.00;99.90;;;;;;5005596;28;20209;-71
2022/03/01 09:58:39;;;;;;;23.00;13.30;;;3.10;99.90;;;;;;4995111;28;20206;-70
2022/03/01 10:01:07;;;;;;;22.70;12.70;;;3.20;99.90;;;;;;5000953;28;20199;-72
2022/03/01 10:03:36;;;;;;;20.15;12.30;;;3.40;99.90;;;;;;5000506;28;20206;-71
2022/03/01 10:06:09;;;;;;;20.20;12.63;;;3.50;99.90;;;;;;5001677;28;20246;-70
2022/03/01 10:08:40;;;;;;;23.20;13.80;;;3.70;99.90;;;;;;4994888;28;20213;-70
2022/03/01 10:11:09;;;;;;;20.55;12.48;;;3.80;99.90;;;;;;4999742;28;20755;-71
2022/03/01 10:13:42;;;;;;;17.77;12.45;;;3.90;99.90;;;;;;4998988;28;20789;-70
2022/03/01 10:16:12;;;;;;;20.02;13.02;;;4.00;99.90;;;;;;5000140;28;20289;-70
2022/03/01 10:18:43;;;;;;;18.20;12.32;;;4.10;99.90;;;;;;5000655;28;20235;-70
2022/03/01 10:21:13;;;;;;;19.48;12.52;;;4.30;99.90;;;;;;4999185;28;20219;-69
2022/03/01 10:23:47;;;;;;;20.20;11.43;;;4.40;99.90;;;;;;4998818;28;20194;-69
2022/03/01 10:26:17;;;;;;;20.30;13.45;;;4.50;99.90;;;;;;5000432;28;20725;-69
2022/03/01 10:28:47;;;;;;;21.77;12.95;;;4.60;99.90;;;;;;4999951;28;20229;-71
2022/03/01 10:31:18;;;;;;;19.17;12.32;;;4.80;99.90;;;;;;4998647;28;20213;-71
2022/03/01 10:33:56;;;;;;;19.15;11.57;;;4.90;99.90;;;;;;4999130;28;20219;-70
2022/03/01 10:36:29;;;;;;;22.48;14.05;;;5.10;99.90;;;;;;4998433;28;20840;-70
2022/03/01 10:38:58;;;;;;;20.27;13.10;;;5.20;99.90;;;;;;4998996;28;20227;-70
2022/03/01 10:41:28;;;;;;;21.27;12.68;;;5.30;99.90;;;;;;4998668;28;20202;-70
2022/03/01 10:43:59;;;;;;;17.30;11.18;;;5.40;99.90;;;;;;4998600;28;20207;-71
2022/03/01 10:46:28;;;;;;;20.02;12.82;;;5.50;99.90;;;;;;4998837;28;20858;-71
2022/03/01 10:49:03;;;;;;;21.67;13.40;;;5.60;99.90;;;;;;4994858;28;20207;-71
2022/03/01 10:51:30;;;;;;;17.88;12.85;;;5.80;99.90;;;;;;5000010;28;20827;-71
2022/03/01 10:54:00;;;;;;;25.52;14.23;;;5.90;99.90;;;;;;5001372;28;20229;-70
2022/03/01 10:56:36;;;;;;;19.33;12.10;;;5.90;99.90;;;;;;5003212;28;20277;-71
2022/03/01 10:59:07;;;;;;;23.08;13.15;;;5.90;99.90;;;;;;5004413;28;20222;-70
2022/03/01 11:01:34;;;;;;;21.98;12.18;;;5.90;99.90;;;;;;5002174;28;20210;-71
2022/03/01 11:04:06;;;;;;;17.17;11.85;;;6.00;99.90;;;;;;5003407;28;20203;-71
2022/03/01 11:06:36;;;;;;;18.23;13.32;;;6.10;99.90;;;;;;5003627;28;20210;-71
2022/03/01 11:09:05;;;;;;;21.02;13.18;;;6.10;99.90;;;;;;5001801;28;20257;-73
2022/03/01 11:11:33;;;;;;;17.45;11.90;;;6.30;99.90;;;;;;5002446;28;20702;-71
2022/03/01 11:14:03;;;;;;;22.45;13.23;;;6.40;99.90;;;;;;5001897;28;20237;-71
2022/03/01 11:16:46;;;;;;;20.10;13.05;;;6.60;99.90;;;;;;5002242;28;20700;-70
2022/03/01 11:19:41;;;;;;;22.58;12.93;;;6.80;99.90;;;;;;5002242;28;20257;-70
2022/03/01 11:22:21;;;;;;;14.13;11.38;;;6.90;99.90;;;;;;4998381;28;20383;-70
2022/03/01 11:24:49;;;;;;;20.85;13.23;;;7.00;99.90;;;;;;5001709;28;20235;-67
2022/03/01 11:27:20;;;;;;;21.35;14.77;;;7.00;99.90;;;;;;5001702;28;20432;-67
2022/03/01 11:29:48;;;;;;;19.27;12.45;;;7.10;99.90;;;;;;5001378;28;20255;-68
2022/03/01 11:32:21;;;;;;;18.90;12.73;;;7.10;99.90;;;;;;5002395;28;20286;-67
2022/03/01 11:34:59;;;;;;;18.55;13.25;;;7.10;99.90;;;;;;5001131;28;20227;-67
2022/03/01 11:37:27;;;;;;;18.83;12.23;;;7.10;99.90;;;;;;5002086;28;20834;-71
2022/03/01 11:39:56;;;;;;;18.88;11.98;;;7.20;99.90;;;;;;5001654;28;20226;-67
2022/03/01 11:42:25;;;;;;;19.23;13.10;;;7.30;99.90;;;;;;5001714;28;20203;-68
2022/03/01 11:44:54;;;;;;;18.00;12.70;;;7.40;99.90;;;;;;5002003;28;20286;-68
2022/03/01 11:47:29;;;;;;;20.15;12.75;;;7.50;99.90;;;;;;5002209;28;20203;-72
2022/03/01 11:50:18;;;;;;;19.58;11.93;;;7.60;99.90;;;;;;5001733;28;20751;-67
2022/03/01 11:52:56;;;;;;;19.27;12.90;;;7.60;99.90;;;;;;5001671;28;20290;-69
2022/03/01 11:55:29;;;;;;;21.38;14.35;;;7.70;99.90;;;;;;5001216;28;20488;-71
2022/03/01 11:57:57;;;;;;;19.05;12.75;;;7.70;99.90;;;;;;5002219;28;20301;-70
2022/03/01 12:00:29;;;;;;;16.73;12.27;;;7.80;99.90;;;;;;5001617;28;20223;-69
2022/03/01 12:03:01;;;;;;;19.77;12.52;;;7.80;99.90;;;;;;5001050;28;20686;-70
2022/03/01 12:05:29;;;;;;;20.35;13.30;;;7.90;99.90;;;;;;5000322;28;20209;-70
2022/03/01 12:07:57;;;;;;;19.33;12.98;;;8.00;99.90;;;;;;5002036;28;20289;-71
2022/03/01 12:10:53;;;;;;;19.65;12.68;;;8.10;99.90;;;;;;5001045;28;20804;-70
2022/03/01 12:13:34;;;;;;;20.45;14.52;;;8.30;99.90;;;;;;5001537;28;20230;-70
2022/03/01 12:16:03;;;;;;;17.10;12.25;;;8.40;99.90;;;;;;4998696;28;20207;-70
2022/03/01 12:18:34;;;;;;;17.65;12.35;;;8.30;99.90;;;;;;5000699;28;20207;-70
2022/03/01 12:21:05;;;;;;;17.60;13.00;;;8.40;99.90;;;;;;5001221;28;20250;-70
2022/03/01 12:23:39;;;;;;;18.27;11.98;;;8.40;99.90;;;;;;5000586;28;20210;-70
2022/03/01 12:26:09;;;;;;;22.52;13.20;;;8.40;99.90;;;;;;5000873;28;20203;-70
2022/03/01 12:28:39;;;;;;;20.05;11.95;;;8.50;99.90;;;;;;5000428;28;20207;-70
2022/03/01 12:31:08;;;;;;;16.85;11.35;;;8.50;99.90;;;;;;5000803;28;20203;-70
2022/03/01 12:33:48;;;;;;;19.75;13.25;;;8.60;99.90;;;;;;4999395;28;20915;-70
2022/03/01 12:36:24;;;;;;;18.00;11.70;;;8.70;99.90;;;;;;4991638;28;20195;-70
2022/03/01 12:38:56;;;;;;;21.80;13.52;;;8.70;99.90;;;;;;4996206;28;20902;-70
2022/03/01 12:41:25;;;;;;;19.48;13.50;;;8.80;99.90;;;;;;4998825;28;20187;-70
2022/03/01 12:43:55;;;;;;;22.08;14.07;;;8.80;99.90;;;;;;4997347;28;20196;-70
2022/03/01 12:46:29;;;;;;;20.35;12.85;;;8.80;99.90;;;;;;4994004;28;20226;-70
2022/03/01 12:49:00;;;;;;;16.88;11.95;;;8.70;99.90;;;;;;4996648;28;20946;-70
2022/03/01 12:51:29;;;;;;;20.35;13.48;;;8.70;99.90;;;;;;4997890;28;20290;-71